createdAt,value
2023-02-18T00:01:18.827Z,6.25
2023-02-18T00:03:46.875Z,6.25
2023-02-18T00:06:15.936Z,7.00
2023-02-18T00:08:45.110Z,7.75
2023-02-18T00:11:13.845Z,6.50
2023-02-18T00:13:43.439Z,5.57
2023-02-18T00:16:13.087Z,5.55
2023-02-18T00:18:41.038Z,6.78
2023-02-18T00:21:09.641Z,6.18
2023-02-18T00:23:37.820Z,5.63
2023-02-18T00:26:08.644Z,6.15
2023-02-18T00:28:37.643Z,7.00
2023-02-18T00:31:11.644Z,6.53
2023-02-18T00:33:40.196Z,7.47
2023-02-18T00:36:10.362Z,7.32
2023-02-18T00:38:38.676Z,6.38
2023-02-18T00:41:07.103Z,7.47
2023-02-18T00:43:35.232Z,7.10
2023-02-18T00:46:03.394Z,7.05
2023-02-18T00:48:34.007Z,7.80
2023-02-18T00:51:02.503Z,6.90
2023-02-18T00:53:31.026Z,6.90
2023-02-18T00:56:00.601Z,7.22
2023-02-18T00:58:28.695Z,7.30
2023-02-18T01:00:57.567Z,8.65
2023-02-18T01:03:25.749Z,8.25
2023-02-18T01:05:55.259Z,7.22
2023-02-18T01:08:28.671Z,6.90
2023-02-18T01:10:59.658Z,7.57
2023-02-18T01:13:30.210Z,7.15
2023-02-18T01:15:58.309Z,8.68
2023-02-18T01:18:26.688Z,7.97
2023-02-18T01:20:56.014Z,8.45
2023-02-18T01:23:24.562Z,7.85
2023-02-18T01:25:52.736Z,8.02
2023-02-18T01:28:21.437Z,6.68
2023-02-18T01:30:51.320Z,7.18
2023-02-18T01:33:19.834Z,6.78
2023-02-18T01:35:48.285Z,6.97
2023-02-18T01:38:17.984Z,7.30
2023-02-18T01:40:48.791Z,8.93
2023-02-18T01:43:17.288Z,7.00
2023-02-18T01:45:58.828Z,6.47
2023-02-18T01:48:32.398Z,7.43
2023-02-18T01:51:05.463Z,5.80
2023-02-18T01:53:39.098Z,6.65
2023-02-18T01:56:12.538Z,7.35
2023-02-18T01:58:40.904Z,5.90
2023-02-18T02:01:12.415Z,5.25
2023-02-18T02:03:40.470Z,7.05
2023-02-18T02:06:15.795Z,7.88
2023-02-18T02:08:46.870Z,6.95
2023-02-18T02:11:25.740Z,6.03
2023-02-18T02:14:17.748Z,6.22
2023-02-18T02:16:51.691Z,6.50
2023-02-18T02:19:56.644Z,7.03
2023-02-18T02:22:59.046Z,5.50
2023-02-18T02:25:48.139Z,6.80
2023-02-18T02:28:52.310Z,5.45
2023-02-18T02:31:48.007Z,6.35
2023-02-18T02:34:40.467Z,5.95
2023-02-18T02:37:17.802Z,6.38
2023-02-18T02:39:58.797Z,5.13
2023-02-18T02:42:44.660Z,5.22
2023-02-18T02:45:25.121Z,5.90
2023-02-18T02:48:00.958Z,5.80
2023-02-18T02:50:38.805Z,4.97
2023-02-18T02:53:17.892Z,6.30
2023-02-18T02:55:46.382Z,5.53
2023-02-18T02:58:17.511Z,5.40
2023-02-18T03:00:59.865Z,5.70
2023-02-18T03:03:44.966Z,5.63
2023-02-18T03:06:50.123Z,6.07
2023-02-18T03:09:22.886Z,6.50
2023-02-18T03:12:01.432Z,5.97
2023-02-18T03:14:42.263Z,6.25
2023-02-18T03:17:17.366Z,6.18
2023-02-18T03:19:50.898Z,6.45
2023-02-18T03:22:26.786Z,5.97
2023-02-18T03:24:58.618Z,5.65
2023-02-18T03:27:29.951Z,5.00
2023-02-18T03:30:03.159Z,6.97
2023-02-18T03:32:35.275Z,4.95
2023-02-18T03:35:09.286Z,5.45
2023-02-18T03:37:41.393Z,5.10
2023-02-18T03:40:11.371Z,5.15
2023-02-18T03:42:39.289Z,4.65
2023-02-18T03:45:08.478Z,4.40
2023-02-18T03:47:36.712Z,4.53
2023-02-18T03:50:05.119Z,4.95
2023-02-18T03:52:33.062Z,4.45
2023-02-18T03:55:02.366Z,3.95
2023-02-18T03:57:31.491Z,3.80
2023-02-18T03:59:59.308Z,3.90
2023-02-18T04:02:27.166Z,3.90
2023-02-18T04:04:55.028Z,3.33
2023-02-18T04:07:23.039Z,3.95
2023-02-18T04:09:51.026Z,3.30
2023-02-18T04:12:20.131Z,3.20
2023-02-18T04:14:47.990Z,2.92
2023-02-18T04:17:15.785Z,4.05
2023-02-18T04:19:43.883Z,3.63
2023-02-18T04:22:11.685Z,4.13
2023-02-18T04:24:39.462Z,2.90
2023-02-18T04:27:07.265Z,3.33
2023-02-18T04:29:36.665Z,3.45
2023-02-18T04:32:04.699Z,4.18
2023-02-18T04:34:32.512Z,3.33
2023-02-18T04:37:00.325Z,3.33
2023-02-18T04:39:28.133Z,2.97
2023-02-18T04:41:55.878Z,2.95
2023-02-18T04:44:23.630Z,3.30
2023-02-18T04:46:52.728Z,3.05
2023-02-18T04:49:20.441Z,2.47
2023-02-18T04:51:48.534Z,2.63
2023-02-18T04:54:16.248Z,2.17
2023-02-18T04:56:44.037Z,3.10
2023-02-18T04:59:12.568Z,2.72
2023-02-18T05:01:40.309Z,2.60
2023-02-18T05:04:09.628Z,2.63
2023-02-18T05:06:39.455Z,2.10
2023-02-18T05:09:07.369Z,2.10
2023-02-18T05:11:35.060Z,2.65
2023-02-18T05:14:02.949Z,3.22
2023-02-18T05:16:31.513Z,3.42
2023-02-18T05:18:59.257Z,2.80
2023-02-18T05:21:28.354Z,3.70
2023-02-18T05:23:56.087Z,4.25
2023-02-18T05:26:23.905Z,3.88
2023-02-18T05:28:51.821Z,5.30
2023-02-18T05:31:19.618Z,3.80
2023-02-18T05:33:47.344Z,3.55
2023-02-18T05:36:15.182Z,2.97
2023-02-18T05:38:44.242Z,3.42
2023-02-18T05:41:11.959Z,3.10
2023-02-18T05:43:53.627Z,2.53
2023-02-18T05:46:21.475Z,2.58
2023-02-18T05:48:49.597Z,2.88
2023-02-18T05:51:17.528Z,2.65
2023-02-18T05:53:46.590Z,3.00
2023-02-18T05:56:14.418Z,2.65
2023-02-18T05:58:42.246Z,3.53
2023-02-18T06:01:10.056Z,3.13
2023-02-18T06:03:37.734Z,2.60
2023-02-18T06:06:06.502Z,3.80
2023-02-18T06:08:34.365Z,3.28
2023-02-18T06:11:03.790Z,3.03
2023-02-18T06:13:31.686Z,2.42
2023-02-18T06:15:59.522Z,2.58
2023-02-18T06:18:27.387Z,3.33
2023-02-18T06:20:55.640Z,2.78
2023-02-18T06:23:23.387Z,3.42
2023-02-18T06:25:51.367Z,3.20
2023-02-18T06:28:20.456Z,2.80
2023-02-18T06:30:48.281Z,2.90
2023-02-18T06:33:16.198Z,2.47
2023-02-18T06:35:44.180Z,2.85
2023-02-18T06:38:11.892Z,2.58
2023-02-18T06:40:39.631Z,2.22
2023-02-18T06:43:07.338Z,2.67
2023-02-18T06:45:36.517Z,2.50
2023-02-18T06:48:04.233Z,2.55
2023-02-18T06:50:31.968Z,2.60
2023-02-18T06:53:00.149Z,2.40
2023-02-18T06:55:27.926Z,1.83
2023-02-18T06:57:55.649Z,2.10
2023-02-18T07:00:23.787Z,2.47
2023-02-18T07:02:52.886Z,2.40
2023-02-18T07:05:20.792Z,1.95
2023-02-18T07:07:48.542Z,2.33
2023-02-18T07:10:16.421Z,2.58
2023-02-18T07:12:44.215Z,2.17
2023-02-18T07:15:12.599Z,2.17
2023-02-18T07:17:40.335Z,1.63
2023-02-18T07:20:10.618Z,2.05
2023-02-18T07:22:38.345Z,2.63
2023-02-18T07:25:06.582Z,2.22
2023-02-18T07:27:34.539Z,1.98
2023-02-18T07:30:02.311Z,2.38
2023-02-18T07:32:30.166Z,2.22
2023-02-18T07:34:57.947Z,2.33
2023-02-18T07:37:27.206Z,2.30
2023-02-18T07:39:54.932Z,1.85
2023-02-18T07:42:22.766Z,1.75
2023-02-18T07:44:51.028Z,1.90
2023-02-18T07:47:19.878Z,2.13
2023-02-18T07:49:47.733Z,2.13
2023-02-18T07:52:16.367Z,1.85
2023-02-18T07:54:45.495Z,3.00
2023-02-18T07:57:13.287Z,1.55
2023-02-18T07:59:41.295Z,2.85
2023-02-18T08:02:16.390Z,1.67
2023-02-18T08:04:44.272Z,1.90
2023-02-18T08:07:14.716Z,2.25
2023-02-18T08:09:42.647Z,1.50
2023-02-18T08:12:11.768Z,2.47
2023-02-18T08:14:40.273Z,1.35
2023-02-18T08:17:08.041Z,1.95
2023-02-18T08:19:35.845Z,2.38
2023-02-18T08:22:03.956Z,2.17
2023-02-18T08:24:31.821Z,2.58
2023-02-18T08:27:01.534Z,2.65
2023-02-18T08:29:31.223Z,1.55
2023-02-18T08:31:59.524Z,2.20
2023-02-18T08:34:43.067Z,2.22
2023-02-18T08:37:10.970Z,2.80
2023-02-18T08:39:40.139Z,1.60
2023-02-18T08:42:08.177Z,2.75
2023-02-18T08:44:36.011Z,4.72
2023-02-18T08:47:03.883Z,2.92
2023-02-18T08:49:53.902Z,2.55
2023-02-18T08:52:21.992Z,3.28
2023-02-18T08:54:49.904Z,3.53
2023-02-18T08:57:17.732Z,2.10
2023-02-18T08:59:45.824Z,3.53
2023-02-18T09:02:15.266Z,3.33
2023-02-18T09:04:43.103Z,2.63
2023-02-18T09:07:12.291Z,4.40
2023-02-18T09:09:40.068Z,3.80
2023-02-18T09:12:08.472Z,3.80
2023-02-18T09:14:36.278Z,4.90
2023-02-18T09:17:04.196Z,3.47
2023-02-18T09:19:32.024Z,3.47
2023-02-18T09:22:00.800Z,3.05
2023-02-18T09:24:30.216Z,5.05
2023-02-18T09:26:58.026Z,6.90
2023-02-18T09:29:25.877Z,5.88
2023-02-18T09:31:53.880Z,5.32
2023-02-18T09:34:21.969Z,4.35
2023-02-18T09:36:49.764Z,5.38
2023-02-18T09:39:18.109Z,3.03
2023-02-18T09:41:49.662Z,3.72
2023-02-18T09:44:22.397Z,5.57
2023-02-18T09:46:53.564Z,3.00
2023-02-18T09:49:26.210Z,5.57
2023-02-18T09:51:55.120Z,3.42
2023-02-18T09:54:23.456Z,4.93
2023-02-18T09:56:54.840Z,5.47
2023-02-18T09:59:25.952Z,4.65
2023-02-18T10:01:55.423Z,3.92
2023-02-18T10:04:30.068Z,5.45
2023-02-18T10:06:59.114Z,3.58
2023-02-18T10:09:31.016Z,4.90
2023-02-18T10:12:09.373Z,5.10
2023-02-18T10:14:37.593Z,3.85
2023-02-18T10:17:06.202Z,5.03
2023-02-18T10:19:37.548Z,4.25
2023-02-18T10:22:07.771Z,5.03
2023-02-18T10:24:39.442Z,5.30
2023-02-18T10:27:10.267Z,4.75
2023-02-18T10:29:38.095Z,5.85
2023-02-18T10:32:15.264Z,4.53
2023-02-18T10:34:47.051Z,3.38
2023-02-18T10:37:32.719Z,7.07
2023-02-18T10:40:09.962Z,4.38
2023-02-18T10:42:48.773Z,2.97
2023-02-18T10:45:26.051Z,7.43
2023-02-18T10:48:06.233Z,8.05
2023-02-18T10:50:38.837Z,4.82
2023-02-18T10:53:14.747Z,4.20
2023-02-18T10:55:44.940Z,5.15
2023-02-18T10:58:33.858Z,4.28
2023-02-18T11:01:05.497Z,4.10
2023-02-18T11:03:45.842Z,5.18
2023-02-18T11:06:21.702Z,7.10
2023-02-18T11:08:51.017Z,4.63
2023-02-18T11:11:24.202Z,5.30
2023-02-18T11:13:57.050Z,3.58
2023-02-18T11:18:53.049Z,2.88
2023-02-18T11:21:31.135Z,4.32
2023-02-18T11:24:06.936Z,3.65
2023-02-18T11:26:37.291Z,4.72
2023-02-18T11:29:08.911Z,3.90
2023-02-18T11:31:45.288Z,4.85
2023-02-18T11:34:18.276Z,4.95
2023-02-18T11:39:21.541Z,3.38
2023-02-18T11:41:55.901Z,2.97
2023-02-18T11:44:29.886Z,3.80
2023-02-18T11:47:00.856Z,3.00
2023-02-18T11:49:30.216Z,5.30
2023-02-18T11:52:07.516Z,5.57
2023-02-18T11:54:36.149Z,3.45
2023-02-18T11:57:06.670Z,3.75
2023-02-18T11:59:38.487Z,3.30
2023-02-18T12:02:25.429Z,2.92
2023-02-18T12:04:59.653Z,2.80
2023-02-18T12:07:32.612Z,3.13
2023-02-18T12:12:32.173Z,3.30
2023-02-18T12:15:02.099Z,3.45
2023-02-18T12:17:51.897Z,3.35
2023-02-18T12:20:37.414Z,3.78
2023-02-18T12:23:12.955Z,4.05
2023-02-18T12:25:48.832Z,4.40
2023-02-18T12:28:35.533Z,3.00
2023-02-18T12:31:30.609Z,3.85
2023-02-18T12:34:18.984Z,3.20
2023-02-18T12:36:59.416Z,3.85
2023-02-18T12:39:41.572Z,2.88
2023-02-18T12:42:30.572Z,2.70
2023-02-18T12:45:14.289Z,3.40
2023-02-18T12:48:15.468Z,3.33
2023-02-18T12:50:56.634Z,2.95
2023-02-18T12:53:50.189Z,2.42
2023-02-18T12:56:41.809Z,3.80
2023-02-18T12:59:20.936Z,2.67
2023-02-18T13:02:00.958Z,3.60
2023-02-18T13:04:49.002Z,4.32
2023-02-18T13:07:30.901Z,2.67
2023-02-18T13:10:20.878Z,3.10
2023-02-18T13:12:58.768Z,3.08
2023-02-18T13:15:35.946Z,3.10
2023-02-18T13:18:09.998Z,2.33
2023-02-18T13:20:41.777Z,3.28
2023-02-18T13:23:17.510Z,2.85
2023-02-18T13:25:46.004Z,3.17
2023-02-18T13:28:21.986Z,2.78
2023-02-18T13:30:59.194Z,2.67
2023-02-18T13:33:36.845Z,3.95
2023-02-18T13:36:12.479Z,3.15
2023-02-18T13:38:57.723Z,3.20
2023-02-18T13:41:28.098Z,3.38
2023-02-18T13:43:55.960Z,3.40
2023-02-18T13:46:24.792Z,3.53
2023-02-18T13:48:55.010Z,3.30
2023-02-18T13:51:34.205Z,3.35
2023-02-18T13:54:06.323Z,3.10
2023-02-18T13:56:36.658Z,3.75
2023-02-18T13:59:10.383Z,3.35
2023-02-18T14:01:41.844Z,3.60
2023-02-18T14:04:48.568Z,4.35
2023-02-18T14:07:46.295Z,2.67
2023-02-18T14:10:34.149Z,3.20
2023-02-18T14:13:18.776Z,4.85
2023-02-18T14:15:56.336Z,4.35
2023-02-18T14:18:27.427Z,3.60
2023-02-18T14:21:06.573Z,3.67
2023-02-18T14:23:45.106Z,4.00
2023-02-18T14:26:25.120Z,4.25
2023-02-18T14:28:59.778Z,3.17
2023-02-18T14:31:37.244Z,4.10
2023-02-18T14:34:28.448Z,4.15
2023-02-18T14:37:11.833Z,3.80
2023-02-18T14:39:53.716Z,4.38
2023-02-18T14:42:30.487Z,3.50
2023-02-18T14:45:12.581Z,4.82
2023-02-18T14:47:55.845Z,3.13
2023-02-18T14:50:24.628Z,3.92
2023-02-18T14:52:57.996Z,2.72
2023-02-18T14:55:29.578Z,4.38
2023-02-18T14:58:02.453Z,3.22
2023-02-18T15:03:02.998Z,2.58
2023-02-18T15:05:33.467Z,3.20
2023-02-18T15:08:02.964Z,3.67
2023-02-18T15:10:40.557Z,2.75
2023-02-18T15:13:14.321Z,4.13
2023-02-18T15:15:44.506Z,4.47
2023-02-18T15:18:21.741Z,3.50
2023-02-18T15:20:50.419Z,2.80
2023-02-18T15:23:18.888Z,3.60
2023-02-18T15:25:52.069Z,3.13
2023-02-18T15:28:23.598Z,2.67
2023-02-18T15:30:51.810Z,4.50
2023-02-18T15:33:23.577Z,3.95
2023-02-18T15:35:51.380Z,3.45
2023-02-18T15:38:21.212Z,4.07
2023-02-18T15:40:53.399Z,3.40
2023-02-18T15:43:23.379Z,2.97
2023-02-18T15:45:53.522Z,2.38
2023-02-18T15:48:33.138Z,3.38
2023-02-18T15:51:16.228Z,3.63
2023-02-18T15:53:48.998Z,4.50
2023-02-18T15:56:25.258Z,3.55
2023-02-18T15:59:08.356Z,3.38
2023-02-18T16:04:07.373Z,4.95
2023-02-18T16:06:39.089Z,4.82
2023-02-18T16:09:16.928Z,3.53
2023-02-18T16:11:48.770Z,3.70
2023-02-18T16:14:27.603Z,3.47
2023-02-18T16:17:09.836Z,3.88
2023-02-18T16:20:02.895Z,3.27
2023-02-18T16:22:36.181Z,4.88
2023-02-18T16:25:14.977Z,3.88
2023-02-18T16:27:51.977Z,3.20
2023-02-18T16:30:23.069Z,3.70
2023-02-18T16:32:51.942Z,4.65
2023-02-18T16:35:20.559Z,3.60
2023-02-18T16:37:50.204Z,3.00
2023-02-18T16:40:30.597Z,4.22
2023-02-18T16:43:01.853Z,4.50
2023-02-18T16:45:35.829Z,3.88
2023-02-18T16:48:06.002Z,4.70
2023-02-18T16:50:35.283Z,4.45
2023-02-18T16:53:03.069Z,4.63
2023-02-18T16:55:32.030Z,3.40
2023-02-18T16:58:01.364Z,3.55
2023-02-18T17:00:29.238Z,4.82
2023-02-18T17:03:00.955Z,4.40
2023-02-18T17:05:30.590Z,5.40
2023-02-18T17:08:06.031Z,5.95
2023-02-18T17:10:36.000Z,3.55
2023-02-18T17:13:05.144Z,4.22
2023-02-18T17:15:35.857Z,3.80
2023-02-18T17:18:04.790Z,4.53
2023-02-18T17:20:33.992Z,4.30
2023-02-18T17:23:01.869Z,4.10
2023-02-18T17:25:34.311Z,4.60
2023-02-18T17:28:02.468Z,4.55
2023-02-18T17:30:33.498Z,4.32
2023-02-18T17:33:03.339Z,5.25
2023-02-18T17:35:31.929Z,4.25
2023-02-18T17:38:00.007Z,4.57
2023-02-18T17:40:29.315Z,4.57
2023-02-18T17:42:57.854Z,5.60
2023-02-18T17:45:29.808Z,3.47
2023-02-18T17:48:00.089Z,4.03
2023-02-18T17:50:29.823Z,3.53
2023-02-18T17:52:58.054Z,4.65
2023-02-18T17:55:28.035Z,4.05
2023-02-18T17:57:55.892Z,5.05
2023-02-18T18:00:25.859Z,4.50
2023-02-18T18:02:53.866Z,3.97
2023-02-18T18:05:25.882Z,4.95
2023-02-18T18:07:54.135Z,3.70
2023-02-18T18:10:25.323Z,3.97
2023-02-18T18:12:53.176Z,4.82
2023-02-18T18:15:27.448Z,3.63
2023-02-18T18:17:56.270Z,3.83
2023-02-18T18:20:27.599Z,4.93
2023-02-18T18:22:57.470Z,3.60
2023-02-18T18:25:27.411Z,4.80
2023-02-18T18:27:55.669Z,4.47
2023-02-18T18:30:25.879Z,4.15
2023-02-18T18:32:54.236Z,3.78
2023-02-18T18:35:27.065Z,4.18
2023-02-18T18:40:25.373Z,4.45
2023-02-18T18:42:53.812Z,3.90
2023-02-18T18:45:24.357Z,5.18
2023-02-18T18:47:53.037Z,4.90
2023-02-18T18:50:22.033Z,5.70
2023-02-18T18:52:53.086Z,4.53
2023-02-18T18:55:25.309Z,6.00
2023-02-18T18:57:53.277Z,4.47
2023-02-18T19:00:23.062Z,4.90
2023-02-18T19:02:51.139Z,5.10
2023-02-18T19:05:25.557Z,5.35
2023-02-18T19:07:55.281Z,5.22
2023-02-18T19:10:23.926Z,5.35
2023-02-18T19:12:51.809Z,6.07
2023-02-18T19:15:22.358Z,5.80
2023-02-18T19:17:51.877Z,4.55
2023-02-18T19:20:22.807Z,5.47
2023-02-18T19:22:50.921Z,4.72
2023-02-18T19:25:21.015Z,6.75
2023-02-18T19:27:50.345Z,5.72
2023-02-18T19:30:22.741Z,5.40
2023-02-18T19:32:51.916Z,7.20
2023-02-18T19:35:20.053Z,5.57
2023-02-18T19:37:48.562Z,5.65
2023-02-18T19:40:21.376Z,6.15
2023-02-18T19:45:18.839Z,4.70
2023-02-18T19:47:47.343Z,6.47
2023-02-18T19:50:17.039Z,5.38
2023-02-18T19:52:44.960Z,5.90
2023-02-18T19:55:12.850Z,4.93
2023-02-18T19:57:42.064Z,6.05
2023-02-18T20:00:12.656Z,5.35
2023-02-18T20:02:43.789Z,7.13
2023-02-18T20:05:13.705Z,7.20
2023-02-18T20:07:42.436Z,5.60
2023-02-18T20:10:13.230Z,7.13
2023-02-18T20:12:42.651Z,6.57
2023-02-18T20:15:10.604Z,6.05
2023-02-18T20:17:39.468Z,6.80
2023-02-18T20:20:07.958Z,6.45
2023-02-18T20:22:35.854Z,6.47
2023-02-18T20:25:03.950Z,6.68
2023-02-18T20:27:32.997Z,6.45
2023-02-18T20:30:02.221Z,5.95
2023-02-18T20:32:30.080Z,6.68
2023-02-18T20:34:57.973Z,6.55
2023-02-18T20:37:25.811Z,5.68
2023-02-18T20:39:53.932Z,5.60
2023-02-18T20:42:21.788Z,5.05
2023-02-18T20:44:51.528Z,5.38
2023-02-18T20:47:20.814Z,6.07
2023-02-18T20:49:48.588Z,7.07
2023-02-18T20:52:17.420Z,7.55
2023-02-18T20:54:45.348Z,6.68
2023-02-18T20:57:13.303Z,6.15
2023-02-18T20:59:41.239Z,6.72
2023-02-18T21:02:09.251Z,6.15
2023-02-18T21:04:38.436Z,6.30
2023-02-18T21:07:06.641Z,5.13
2023-02-18T21:09:34.517Z,5.05
2023-02-18T21:12:02.404Z,5.47
2023-02-18T21:14:30.197Z,5.20
2023-02-18T21:16:58.062Z,5.70
2023-02-18T21:19:26.061Z,6.18
2023-02-18T21:21:55.390Z,5.53
2023-02-18T21:24:23.288Z,7.10
2023-02-18T21:26:51.146Z,5.43
2023-02-18T21:29:18.995Z,5.20
2023-02-18T21:31:46.941Z,6.47
2023-02-18T21:34:16.436Z,5.43
2023-02-18T21:36:45.269Z,5.65
2023-02-18T21:39:14.409Z,4.78
2023-02-18T21:41:42.279Z,5.10
2023-02-18T21:44:10.987Z,5.05
2023-02-18T21:46:40.229Z,4.47
2023-02-18T21:49:09.601Z,5.22
2023-02-18T21:52:00.276Z,4.80
2023-02-18T21:54:31.137Z,4.47
2023-02-18T21:57:00.747Z,6.65
2023-02-18T21:59:29.884Z,4.68
2023-02-18T22:01:59.825Z,4.82
2023-02-18T22:04:28.127Z,5.03
2023-02-18T22:06:55.886Z,4.43
2023-02-18T22:09:23.925Z,5.18
2023-02-18T22:11:53.074Z,5.15
2023-02-18T22:14:20.985Z,4.35
2023-02-18T22:16:48.861Z,5.10
2023-02-18T22:19:16.767Z,4.50
2023-02-18T22:21:44.885Z,4.65
2023-02-18T22:24:14.722Z,5.15
2023-02-18T22:26:43.889Z,6.90
2023-02-18T22:29:14.655Z,5.70
2023-02-18T22:31:42.950Z,5.18
2023-02-18T22:34:11.293Z,5.63
2023-02-18T22:36:39.217Z,5.53
2023-02-18T22:39:08.473Z,5.28
2023-02-18T22:41:36.648Z,4.97
2023-02-18T22:44:06.343Z,5.32
2023-02-18T22:46:37.572Z,4.97
2023-02-18T22:49:07.321Z,4.68
2023-02-18T22:51:38.428Z,5.22
2023-02-18T22:54:07.576Z,4.65
2023-02-18T22:56:35.402Z,4.80
2023-02-18T22:59:03.360Z,4.07
2023-02-18T23:01:32.900Z,4.28
2023-02-18T23:04:06.917Z,5.00
2023-02-18T23:06:34.918Z,5.13
2023-02-18T23:09:03.052Z,4.30
2023-02-18T23:11:30.885Z,4.20
2023-02-18T23:14:16.128Z,4.43
2023-02-18T23:17:01.644Z,4.78
2023-02-18T23:19:32.122Z,3.78
2023-02-18T23:22:00.167Z,4.85
2023-02-18T23:24:28.139Z,4.57
2023-02-18T23:26:55.977Z,3.80
2023-02-18T23:29:23.901Z,4.65
2023-02-18T23:31:51.806Z,4.53
2023-02-18T23:34:19.598Z,4.40
2023-02-18T23:36:49.083Z,4.82
2023-02-18T23:39:19.401Z,4.88
2023-02-18T23:41:47.718Z,4.70
2023-02-18T23:44:17.372Z,6.25
2023-02-18T23:46:45.632Z,4.95
2023-02-18T23:49:15.953Z,5.10
2023-02-18T23:51:44.057Z,5.15
2023-02-18T23:54:13.285Z,5.22
2023-02-18T23:56:41.407Z,4.60
2023-02-18T23:59:09.291Z,4.72
